createdAt,value
2022-08-02T00:00:35.382Z,0.82
2022-08-02T00:03:05.961Z,0.80
2022-08-02T00:05:33.797Z,1.05
2022-08-02T00:08:01.771Z,0.90
2022-08-02T00:10:30.539Z,0.90
2022-08-02T00:12:59.067Z,0.90
2022-08-02T00:15:28.364Z,1.02
2022-08-02T00:17:56.292Z,1.02
2022-08-02T00:20:24.261Z,0.90
2022-08-02T00:22:52.106Z,1.08
2022-08-02T00:25:19.983Z,1.10
2022-08-02T00:27:47.743Z,1.05
2022-08-02T00:30:15.563Z,1.00
2022-08-02T00:32:44.969Z,0.80
2022-08-02T00:35:12.824Z,1.40
2022-08-02T00:37:41.676Z,1.20
2022-08-02T00:40:13.465Z,1.55
2022-08-02T00:42:44.112Z,1.35
2022-08-02T00:45:12.171Z,1.50
2022-08-02T00:47:41.863Z,1.50
2022-08-02T00:50:11.474Z,1.40
2022-08-02T00:52:41.464Z,2.20
2022-08-02T00:55:10.466Z,1.90
2022-08-02T00:57:39.761Z,2.15
2022-08-02T01:00:09.534Z,1.73
2022-08-02T01:02:37.477Z,2.47
2022-08-02T01:05:05.880Z,2.17
2022-08-02T01:07:35.190Z,1.85
2022-08-02T01:10:03.349Z,1.30
2022-08-02T01:12:35.027Z,1.30
2022-08-02T01:15:06.829Z,1.73
2022-08-02T01:17:39.792Z,1.27
2022-08-02T01:20:19.080Z,1.60
2022-08-02T01:23:03.621Z,1.20
2022-08-02T01:25:51.598Z,1.55
2022-08-02T01:28:37.421Z,1.10
2022-08-02T01:31:17.890Z,1.30
2022-08-02T01:33:49.951Z,1.50
2022-08-02T01:36:21.636Z,1.60
2022-08-02T01:38:53.195Z,1.45
2022-08-02T01:41:24.700Z,1.48
2022-08-02T01:43:58.084Z,1.17
2022-08-02T01:46:27.930Z,1.60
2022-08-02T01:48:58.980Z,1.80
2022-08-02T01:51:52.740Z,1.40
2022-08-02T01:54:23.618Z,1.25
2022-08-02T01:56:53.015Z,1.30
2022-08-02T01:59:23.887Z,1.63
2022-08-02T02:01:54.964Z,1.67
2022-08-02T02:04:26.219Z,2.05
2022-08-02T02:06:54.873Z,2.10
2022-08-02T02:09:28.779Z,2.00
2022-08-02T02:12:06.506Z,2.20
2022-08-02T02:14:50.004Z,1.92
2022-08-02T02:17:52.052Z,2.03
2022-08-02T02:20:14.315Z,2.20
2022-08-02T02:22:42.368Z,2.88
2022-08-02T02:25:15.046Z,2.53
2022-08-02T02:27:50.244Z,1.95
2022-08-02T02:30:20.109Z,1.75
2022-08-02T02:32:50.393Z,1.95
2022-08-02T02:35:19.146Z,1.88
2022-08-02T02:37:50.639Z,1.67
2022-08-02T02:40:21.364Z,1.50
2022-08-02T02:42:52.406Z,2.47
2022-08-02T02:45:22.903Z,1.77
2022-08-02T02:47:54.596Z,1.58
2022-08-02T02:50:23.278Z,2.30
2022-08-02T02:52:51.870Z,1.88
2022-08-02T02:55:19.870Z,1.88
2022-08-02T02:57:48.438Z,1.40
2022-08-02T03:00:16.843Z,1.48
2022-08-02T03:02:48.266Z,1.70
2022-08-02T03:05:17.057Z,2.13
2022-08-02T03:07:44.897Z,1.63
2022-08-02T03:10:14.851Z,1.30
2022-08-02T03:12:42.695Z,1.80
2022-08-02T03:15:15.157Z,1.65
2022-08-02T03:17:44.510Z,1.48
2022-08-02T03:20:16.527Z,1.80
2022-08-02T03:22:45.722Z,2.22
2022-08-02T03:25:15.945Z,1.83
2022-08-02T03:27:43.900Z,2.22
2022-08-02T03:30:14.492Z,2.10
2022-08-02T03:32:46.039Z,1.50
2022-08-02T03:35:23.095Z,1.73
2022-08-02T03:37:54.122Z,1.90
2022-08-02T03:40:22.725Z,1.48
2022-08-02T03:42:51.713Z,1.40
2022-08-02T03:45:19.815Z,1.90
2022-08-02T03:47:48.359Z,2.10
2022-08-02T03:50:22.812Z,1.80
2022-08-02T03:52:51.452Z,1.77
2022-08-02T03:55:19.326Z,2.20
2022-08-02T03:57:47.186Z,1.95
2022-08-02T04:00:20.536Z,2.35
2022-08-02T04:02:49.309Z,1.90
2022-08-02T04:05:20.620Z,2.80
2022-08-02T04:08:02.448Z,2.08
2022-08-02T04:10:51.487Z,2.05
2022-08-02T04:13:22.758Z,2.38
2022-08-02T04:15:54.970Z,2.40
2022-08-02T04:18:28.169Z,2.50
2022-08-02T04:21:03.281Z,2.72
2022-08-02T04:23:34.222Z,1.80
2022-08-02T04:26:04.025Z,2.03
2022-08-02T04:28:37.583Z,1.75
2022-08-02T04:31:06.952Z,1.95
2022-08-02T04:33:35.950Z,1.83
2022-08-02T04:36:06.943Z,1.92
2022-08-02T04:38:37.692Z,1.90
2022-08-02T04:41:05.514Z,1.50
2022-08-02T04:43:33.370Z,1.83
2022-08-02T04:46:02.749Z,2.58
2022-08-02T04:48:30.643Z,2.00
2022-08-02T04:50:58.789Z,1.85
2022-08-02T04:53:28.046Z,2.35
2022-08-02T04:55:55.866Z,1.65
2022-08-02T04:58:40.000Z,1.65
2022-08-02T05:01:10.873Z,2.05
2022-08-02T05:03:38.782Z,1.75
2022-08-02T05:06:07.634Z,1.67
2022-08-02T05:08:52.848Z,1.40
2022-08-02T05:11:22.122Z,2.20
2022-08-02T05:13:58.863Z,1.80
2022-08-02T05:16:30.859Z,1.50
2022-08-02T05:19:00.308Z,1.50
2022-08-02T05:21:28.952Z,1.88
2022-08-02T05:23:58.622Z,1.30
2022-08-02T05:26:26.499Z,1.60
2022-08-02T05:28:54.339Z,1.67
2022-08-02T05:31:22.403Z,2.60
2022-08-02T05:33:50.333Z,2.10
2022-08-02T05:36:18.273Z,2.03
2022-08-02T05:38:50.813Z,1.63
2022-08-02T05:41:20.646Z,2.10
2022-08-02T05:43:50.759Z,1.63
2022-08-02T05:46:18.902Z,2.60
2022-08-02T05:48:46.765Z,1.80
2022-08-02T05:51:23.570Z,1.98
2022-08-02T05:53:55.300Z,2.30
2022-08-02T05:56:36.303Z,1.83
2022-08-02T05:59:06.309Z,1.63
2022-08-02T06:01:36.679Z,2.17
2022-08-02T06:04:08.889Z,1.63
2022-08-02T06:06:38.573Z,1.85
2022-08-02T06:09:11.040Z,2.17
2022-08-02T06:12:01.698Z,2.28
2022-08-02T06:14:34.125Z,2.30
2022-08-02T06:17:05.922Z,2.58
2022-08-02T06:19:50.963Z,2.28
2022-08-02T06:22:42.131Z,2.50
2022-08-02T06:25:48.451Z,2.42
2022-08-02T06:27:59.347Z,2.20
2022-08-02T06:30:28.152Z,2.15
2022-08-02T06:32:56.916Z,2.10
2022-08-02T06:35:30.734Z,2.10
2022-08-02T06:38:01.804Z,2.40
2022-08-02T06:40:33.645Z,2.20
2022-08-02T06:43:19.021Z,1.95
2022-08-02T06:45:46.937Z,1.88
2022-08-02T06:48:15.035Z,2.17
2022-08-02T06:50:44.205Z,2.50
2022-08-02T06:53:12.701Z,2.38
2022-08-02T06:55:43.820Z,2.70
2022-08-02T06:58:13.555Z,2.88
2022-08-02T07:00:41.704Z,2.65
2022-08-02T07:03:09.682Z,2.97
2022-08-02T07:05:37.655Z,3.20
2022-08-02T07:08:05.925Z,2.38
2022-08-02T07:10:33.756Z,2.55
2022-08-02T07:13:01.609Z,3.15
2022-08-02T07:15:30.904Z,2.80
2022-08-02T07:17:58.812Z,2.90
2022-08-02T07:20:26.674Z,2.72
2022-08-02T07:22:54.558Z,3.20
2022-08-02T07:25:23.757Z,2.95
2022-08-02T07:27:51.949Z,3.25
2022-08-02T07:30:19.888Z,4.30
2022-08-02T07:32:51.733Z,3.60
2022-08-02T07:35:21.199Z,3.53
2022-08-02T07:37:54.566Z,4.10
2022-08-02T07:40:29.484Z,2.80
2022-08-02T07:43:03.436Z,2.95
2022-08-02T07:45:32.854Z,3.08
2022-08-02T07:48:06.086Z,3.25
2022-08-02T07:50:34.008Z,3.40
2022-08-02T07:53:02.244Z,2.80
2022-08-02T07:55:35.215Z,2.22
2022-08-02T07:58:10.916Z,2.70
2022-08-02T08:00:40.872Z,2.27
2022-08-02T08:03:12.591Z,3.28
2022-08-02T08:05:40.809Z,3.58
2022-08-02T08:08:16.707Z,3.60
2022-08-02T08:10:45.638Z,3.50
2022-08-02T08:13:13.583Z,3.58
2022-08-02T08:15:41.492Z,3.33
2022-08-02T08:18:21.388Z,3.90
2022-08-02T08:20:49.363Z,4.10
2022-08-02T08:23:17.215Z,5.07
2022-08-02T08:25:45.138Z,3.88
2022-08-02T08:28:13.449Z,3.25
2022-08-02T08:30:42.202Z,3.90
2022-08-02T08:33:10.418Z,3.80
2022-08-02T08:35:39.855Z,4.00
2022-08-02T08:38:08.342Z,4.00
2022-08-02T08:40:37.081Z,4.40
2022-08-02T08:43:07.447Z,3.92
2022-08-02T08:45:35.643Z,3.47
2022-08-02T08:48:12.696Z,4.30
2022-08-02T08:50:48.637Z,3.73
2022-08-02T08:53:17.294Z,4.10
2022-08-02T08:55:53.501Z,3.60
2022-08-02T08:58:23.955Z,3.80
2022-08-02T09:00:54.906Z,3.80
2022-08-02T09:03:22.700Z,3.88
2022-08-02T09:05:52.249Z,3.53
2022-08-02T09:08:23.494Z,3.25
2022-08-02T09:10:51.632Z,3.63
2022-08-02T09:13:38.626Z,3.95
2022-08-02T09:16:12.196Z,3.22
2022-08-02T09:18:44.505Z,3.58
2022-08-02T09:21:15.320Z,3.80
2022-08-02T09:23:44.868Z,3.95
2022-08-02T09:26:15.331Z,2.92
2022-08-02T09:28:46.111Z,3.10
2022-08-02T09:31:17.066Z,3.17
2022-08-02T09:33:47.120Z,3.40
2022-08-02T09:36:18.022Z,3.70
2022-08-02T09:38:54.857Z,3.40
2022-08-02T09:41:24.397Z,3.30
2022-08-02T09:44:05.589Z,2.75
2022-08-02T09:46:38.333Z,2.78
2022-08-02T09:49:10.714Z,3.10
2022-08-02T09:51:42.200Z,2.50
2022-08-02T09:54:12.738Z,2.90
2022-08-02T09:56:43.562Z,3.22
2022-08-02T09:59:11.930Z,3.17
2022-08-02T10:01:40.386Z,3.30
2022-08-02T10:04:22.740Z,3.30
2022-08-02T10:06:55.349Z,3.55
2022-08-02T10:09:23.909Z,3.80
2022-08-02T10:11:52.756Z,3.95
2022-08-02T10:14:23.468Z,3.50
2022-08-02T10:16:54.576Z,3.70
2022-08-02T10:20:01.143Z,3.67
2022-08-02T10:22:16.460Z,3.42
2022-08-02T10:24:48.285Z,3.45
2022-08-02T10:27:20.114Z,3.08
2022-08-02T10:29:55.512Z,3.40
2022-08-02T10:32:29.507Z,3.45
2022-08-02T10:35:19.000Z,2.90
2022-08-02T10:37:53.273Z,3.40
2022-08-02T10:40:26.670Z,2.38
2022-08-02T10:42:59.397Z,2.50
2022-08-02T10:45:30.069Z,2.17
2022-08-02T10:47:59.583Z,3.03
2022-08-02T10:51:03.867Z,2.95
2022-08-02T10:53:36.781Z,3.10
2022-08-02T10:56:06.525Z,3.13
2022-08-02T10:58:37.552Z,3.13
2022-08-02T11:01:06.844Z,3.53
2022-08-02T11:03:42.841Z,2.80
2022-08-02T11:06:26.278Z,2.78
2022-08-02T11:09:33.418Z,2.70
2022-08-02T11:12:04.212Z,2.67
2022-08-02T11:14:33.323Z,2.72
2022-08-02T11:17:15.541Z,2.55
2022-08-02T11:20:20.918Z,2.90
2022-08-02T11:22:50.217Z,3.03
2022-08-02T11:28:25.451Z,2.90
2022-08-02T11:31:02.653Z,2.88
2022-08-02T11:33:36.306Z,2.35
2022-08-02T11:36:08.086Z,2.90
2022-08-02T11:38:36.326Z,2.67
2022-08-02T11:41:09.942Z,2.40
2022-08-02T11:43:41.244Z,3.05
2022-08-02T11:46:15.176Z,2.80
2022-08-02T11:48:44.584Z,3.22
2022-08-02T11:51:13.690Z,2.63
2022-08-02T11:53:51.035Z,2.63
2022-08-02T11:56:27.837Z,2.78
2022-08-02T11:59:02.937Z,2.70
2022-08-02T12:01:32.289Z,2.70
2022-08-02T12:04:12.967Z,2.60
2022-08-02T12:06:40.870Z,2.70
2022-08-02T12:09:18.903Z,2.70
2022-08-02T12:11:51.440Z,2.45
2022-08-02T12:14:19.398Z,2.50
2022-08-02T12:17:06.443Z,2.40
2022-08-02T12:19:35.336Z,2.10
2022-08-02T12:22:12.466Z,2.70
2022-08-02T12:24:44.511Z,2.42
2022-08-02T12:27:36.758Z,2.40
2022-08-02T12:30:10.409Z,2.63
2022-08-02T12:32:38.715Z,2.50
2022-08-02T12:35:10.549Z,2.70
2022-08-02T12:37:40.143Z,2.30
2022-08-02T12:40:25.117Z,2.83
2022-08-02T12:43:00.685Z,2.35
2022-08-02T12:45:38.315Z,1.90
2022-08-02T12:48:09.542Z,2.05
2022-08-02T12:50:38.133Z,2.30
2022-08-02T12:53:08.506Z,2.50
2022-08-02T12:56:00.704Z,2.25
2022-08-02T12:58:30.240Z,2.33
2022-08-02T13:01:00.080Z,2.10
2022-08-02T13:04:10.420Z,2.10
2022-08-02T13:06:40.984Z,2.72
2022-08-02T13:09:13.654Z,2.00
2022-08-02T13:11:44.346Z,2.13
2022-08-02T13:14:14.671Z,2.00
2022-08-02T13:16:44.151Z,2.08
2022-08-02T13:19:13.033Z,2.00
2022-08-02T13:22:00.815Z,1.92
2022-08-02T13:24:38.518Z,2.50
2022-08-02T13:27:09.867Z,2.00
2022-08-02T13:29:39.665Z,2.22
2022-08-02T13:32:07.859Z,2.08
2022-08-02T13:34:35.862Z,2.28
2022-08-02T13:37:04.797Z,2.10
2022-08-02T13:39:32.781Z,2.20
2022-08-02T13:42:00.749Z,2.20
2022-08-02T13:44:28.612Z,1.50
2022-08-02T13:46:58.020Z,1.83
2022-08-02T13:49:51.128Z,2.10
2022-08-02T13:52:16.218Z,2.05
2022-08-02T13:54:44.534Z,1.70
2022-08-02T13:57:12.302Z,1.73
2022-08-02T13:59:56.601Z,1.65
2022-08-02T14:02:28.677Z,1.80
2022-08-02T14:04:56.870Z,1.98
2022-08-02T14:07:27.039Z,1.52
2022-08-02T14:09:55.213Z,1.67
2022-08-02T14:12:23.064Z,1.88
2022-08-02T14:14:51.244Z,1.95
2022-08-02T14:17:19.718Z,2.05
2022-08-02T14:19:49.201Z,1.67
2022-08-02T14:22:17.126Z,1.85
2022-08-02T14:24:45.298Z,1.88
2022-08-02T14:27:13.473Z,1.70
2022-08-02T14:29:41.362Z,1.60
2022-08-02T14:32:11.789Z,1.52
2022-08-02T14:34:39.835Z,1.90
2022-08-02T14:37:09.020Z,2.10
2022-08-02T14:39:43.600Z,1.95
2022-08-02T14:42:26.951Z,1.90
2022-08-02T14:44:54.782Z,1.63
2022-08-02T14:47:22.622Z,1.80
2022-08-02T14:49:50.816Z,1.92
2022-08-02T14:52:20.888Z,1.90
2022-08-02T14:54:48.934Z,1.85
2022-08-02T14:57:17.040Z,1.90
2022-08-02T14:59:47.423Z,1.80
2022-08-02T15:02:15.996Z,2.40
2022-08-02T15:04:44.131Z,1.90
2022-08-02T15:07:13.135Z,1.70
2022-08-02T15:09:42.379Z,1.77
2022-08-02T15:12:11.808Z,2.13
2022-08-02T15:14:40.482Z,1.98
2022-08-02T15:17:09.155Z,1.90
2022-08-02T15:19:57.845Z,2.17
2022-08-02T15:22:25.040Z,2.00
2022-08-02T15:24:54.364Z,1.90
2022-08-02T15:27:22.185Z,1.65
2022-08-02T15:29:50.018Z,2.20
2022-08-02T15:32:19.732Z,2.20
2022-08-02T15:34:48.148Z,1.77
2022-08-02T15:37:16.051Z,1.95
2022-08-02T15:39:44.282Z,1.88
2022-08-02T15:42:14.004Z,2.35
2022-08-02T15:44:45.060Z,2.05
2022-08-02T15:47:12.927Z,1.80
2022-08-02T15:49:41.766Z,1.77
2022-08-02T15:52:11.123Z,1.80
2022-08-02T15:54:39.402Z,1.90
2022-08-02T15:57:07.680Z,1.90
2022-08-02T15:59:36.939Z,2.00
2022-08-02T16:02:07.592Z,2.03
2022-08-02T16:04:35.670Z,2.05
2022-08-02T16:07:03.671Z,1.83
2022-08-02T16:09:31.498Z,1.65
2022-08-02T16:12:01.821Z,1.90
2022-08-02T16:14:29.689Z,2.15
2022-08-02T16:16:58.873Z,2.00
2022-08-02T16:19:47.597Z,1.70
2022-08-02T16:22:15.669Z,1.60
2022-08-02T16:24:43.787Z,1.60
2022-08-02T16:27:11.951Z,1.42
2022-08-02T16:29:40.121Z,1.90
2022-08-02T16:32:09.398Z,1.83
2022-08-02T16:35:04.107Z,1.90
2022-08-02T16:37:24.962Z,1.90
2022-08-02T16:39:55.095Z,2.00
2022-08-02T16:42:25.896Z,1.80
2022-08-02T16:44:54.847Z,2.00
2022-08-02T16:47:37.127Z,2.17
2022-08-02T16:50:12.296Z,1.90
2022-08-02T16:52:40.255Z,2.17
2022-08-02T16:55:10.936Z,2.10
2022-08-02T16:57:43.205Z,2.15
2022-08-02T17:00:16.201Z,1.75
2022-08-02T17:02:46.977Z,2.10
2022-08-02T17:05:15.511Z,2.30
2022-08-02T17:08:07.974Z,1.92
2022-08-02T17:10:34.603Z,1.80
2022-08-02T17:13:11.617Z,2.20
2022-08-02T17:16:01.361Z,1.58
2022-08-02T17:18:29.821Z,1.83
2022-08-02T17:20:57.916Z,2.38
2022-08-02T17:24:04.100Z,2.08
2022-08-02T17:26:14.306Z,2.20
2022-08-02T17:29:14.465Z,2.00
2022-08-02T17:31:42.406Z,2.30
2022-08-02T17:34:12.425Z,1.90
2022-08-02T17:36:42.779Z,1.88
2022-08-02T17:39:10.994Z,1.95
2022-08-02T17:41:49.275Z,1.80
2022-08-02T17:44:37.596Z,2.00
2022-08-02T17:47:08.437Z,1.83
2022-08-02T17:49:44.421Z,2.05
2022-08-02T17:52:50.382Z,1.80
2022-08-02T17:58:00.839Z,1.77
2022-08-02T18:00:53.148Z,1.85
2022-08-02T18:05:53.441Z,1.45
2022-08-02T18:08:24.788Z,2.38
2022-08-02T18:10:53.488Z,2.22
2022-08-02T18:13:21.816Z,5.55
2022-08-02T18:15:50.321Z,2.38
2022-08-02T18:21:15.953Z,1.90
2022-08-02T18:23:58.177Z,2.00
2022-08-02T18:26:28.398Z,2.20
2022-08-02T18:29:10.962Z,2.40
2022-08-02T18:31:51.084Z,2.28
2022-08-02T18:34:19.547Z,2.17
2022-08-02T18:36:53.435Z,2.20
2022-08-02T18:39:23.449Z,2.13
2022-08-02T18:41:51.256Z,1.75
2022-08-02T18:44:19.125Z,1.80
2022-08-02T18:46:49.152Z,1.90
2022-08-02T18:49:17.445Z,1.90
2022-08-02T18:51:45.774Z,1.80
2022-08-02T18:54:15.603Z,1.97
2022-08-02T18:56:47.135Z,1.92
2022-08-02T18:59:15.849Z,1.98
2022-08-02T19:01:51.030Z,1.60
2022-08-02T19:04:27.778Z,2.15
2022-08-02T19:07:05.439Z,1.60
2022-08-02T19:09:39.838Z,1.50
2022-08-02T19:12:09.259Z,1.85
2022-08-02T19:14:41.315Z,1.60
2022-08-02T19:17:15.907Z,1.77
2022-08-02T19:19:57.144Z,1.50
2022-08-02T19:22:27.489Z,1.90
2022-08-02T19:35:30.620Z,1.30
2022-08-02T19:40:59.330Z,1.70
2022-08-02T19:44:23.039Z,1.95
2022-08-02T19:46:20.429Z,1.50
2022-08-02T19:48:50.075Z,1.83
2022-08-02T19:51:49.271Z,2.15
2022-08-02T19:54:05.840Z,2.03
2022-08-02T19:56:42.539Z,1.95
2022-08-02T19:59:14.090Z,1.95
2022-08-02T20:01:48.428Z,1.65
2022-08-02T20:04:22.868Z,2.45
2022-08-02T20:06:51.671Z,2.20
2022-08-02T20:09:22.887Z,2.00
2022-08-02T20:11:54.261Z,3.08
2022-08-02T20:14:26.979Z,2.72
2022-08-02T20:16:57.138Z,2.35
2022-08-02T20:19:29.092Z,3.08
2022-08-02T20:22:00.943Z,2.03
2022-08-02T20:24:30.364Z,1.80
2022-08-02T20:27:00.369Z,2.63
2022-08-02T20:29:42.984Z,2.10
2022-08-02T20:32:14.593Z,2.30
2022-08-02T20:34:42.849Z,2.70
2022-08-02T20:37:59.224Z,3.08
2022-08-02T20:40:04.944Z,3.88
2022-08-02T20:42:35.172Z,2.78
2022-08-02T20:45:03.061Z,2.47
2022-08-02T20:47:39.375Z,2.40
2022-08-02T20:50:30.438Z,2.33
2022-08-02T20:53:01.852Z,2.35
2022-08-02T20:55:32.071Z,2.10
2022-08-02T20:58:02.697Z,2.95
2022-08-02T21:00:31.656Z,2.90
2022-08-02T21:03:00.495Z,2.42
2022-08-02T21:05:43.657Z,2.72
2022-08-02T21:08:18.675Z,3.55
2022-08-02T21:10:52.253Z,2.60
2022-08-02T21:13:24.094Z,2.45
2022-08-02T21:15:53.241Z,2.53
2022-08-02T21:18:27.848Z,2.30
2022-08-02T21:21:09.099Z,2.40
2022-08-02T21:23:37.413Z,2.75
2022-08-02T21:26:06.452Z,2.38
2022-08-02T21:28:43.839Z,2.42
2022-08-02T21:31:15.992Z,2.65
2022-08-02T21:33:55.221Z,2.90
2022-08-02T21:39:14.926Z,2.78
2022-08-02T21:41:46.632Z,2.33
2022-08-02T21:44:17.640Z,2.10
2022-08-02T21:46:46.622Z,2.25
2022-08-02T21:49:26.973Z,2.63
2022-08-02T21:51:55.645Z,2.42
2022-08-02T21:54:23.892Z,2.20
2022-08-02T21:56:53.400Z,2.85
2022-08-02T21:59:25.799Z,2.22
2022-08-02T22:01:57.053Z,1.98
2022-08-02T22:04:25.934Z,1.80
2022-08-02T22:06:55.099Z,2.75
2022-08-02T22:09:42.093Z,2.70
2022-08-02T22:12:12.772Z,2.30
2022-08-02T22:14:53.783Z,2.20
2022-08-02T22:17:51.930Z,2.22
2022-08-02T22:20:13.649Z,2.50
2022-08-02T22:22:41.885Z,2.70
2022-08-02T22:25:21.745Z,2.90
2022-08-02T22:28:35.762Z,3.03
2022-08-02T22:30:52.719Z,2.30
2022-08-02T22:33:38.897Z,2.28
2022-08-02T22:36:11.402Z,3.40
2022-08-02T22:38:44.433Z,2.85
2022-08-02T22:41:13.396Z,2.85
2022-08-02T22:43:41.675Z,2.67
2022-08-02T22:46:16.805Z,1.85
2022-08-02T22:48:45.511Z,2.20
2022-08-02T22:51:13.974Z,2.38
2022-08-02T22:53:41.857Z,3.03
2022-08-02T22:56:10.592Z,2.58
2022-08-02T22:58:43.670Z,4.97
2022-08-02T22:58:47.819Z,1.60
2022-08-02T22:58:49.641Z,1.98
2022-08-02T22:58:52.549Z,2.20
2022-08-02T22:59:10.805Z,3.10
2022-08-02T23:01:31.060Z,2.50
2022-08-02T23:04:01.411Z,2.33
2022-08-02T23:06:29.497Z,2.35
2022-08-02T23:08:57.269Z,2.30
2022-08-02T23:11:25.088Z,3.10
2022-08-02T23:13:52.908Z,3.20
2022-08-02T23:16:39.338Z,2.90
2022-08-02T23:19:25.970Z,2.55
2022-08-02T23:22:02.692Z,2.22
2022-08-02T23:24:33.184Z,2.47
2022-08-02T23:27:01.492Z,2.72
2022-08-02T23:29:29.448Z,5.00
2022-08-02T23:32:01.890Z,4.13
2022-08-02T23:34:33.143Z,5.03
2022-08-02T23:37:03.812Z,3.05
2022-08-02T23:39:35.540Z,3.85
2022-08-02T23:42:06.173Z,3.47
2022-08-02T23:44:34.332Z,2.45
2022-08-02T23:47:02.417Z,3.00
2022-08-02T23:49:30.336Z,2.92
2022-08-02T23:52:11.429Z,3.10
2022-08-02T23:54:39.813Z,3.38
2022-08-02T23:57:20.042Z,3.85
2022-08-02T23:59:50.858Z,3.38
